Hovedside
METAR-TAF:

METAR-TAF

Lufthavner :

Simón Bolívar internasjonale lufthavn

Caracas, Venezuela

breddegrad: 10-36N, lengdegrad: 066-59W, høyde over havet: 43 m

Gjeldene værobservasjon

Denne rapporten ble laget for 1 time og 0 minutter siden, klokken 15:00 UTC
Vind 3 kt fra Nord
Temperatur 30°C
Luftfuktighet 75%
Trykk 1012 hPa
Sikt 10 km eller mer
Få skyer i en høyde av 1600 ft

METAR: SVMI 201500Z 36003KT 9999 FEW016 30/25 Q1012

Tid: 12:00 (16:00 UTC)

Varsel

Denne rapporten ble laget for 6 timer og 0 minutter siden, klokken 10:00 UTC
Varsel gyldig fra 20. klokken 12 UTC til 21. klokken 12 UTC
Vind 3 kt fra Øst
Sikt 10 km eller mer
Spredte skyer i en høyde av 1600 ft
Blir
fra 20. klokken 12 UTC til 20. klokken 16 UTC
Vind 2 kt fra Øst
Få skyer i en høyde av 1600 ft
Spredte skyer i en høyde av 10000 ft

TAF: SVMI 201000Z 2012/2112 09003KT 9999 SCT016 TX32/18Z TN22/08Z BECMG 2012/2016 10002KT FEW016 SCT100

Værobservasjoner og værvarsel for over 4000 flyplasser (METAR- og TAF-rapporter).

Tilgjengelige stasjoner er representert av de røde og gule prikkene på kartet.

Hold musepekeren over prikken for å se navnet på stasjonen.

Klikk så for å se værobservasjoner og -varsler.

For å forandre kartet kan du klikke på den grønne knappen med svart kryss for å zoome inn, på den grønne knappen med strek for å zoome ut, eller på de grønne pilene for å se tilstøtende kart.


METAR-TAF: